Time;durP1;ratioP1;P1;durP2;ratioP2;P2;SDS_P1;SDS_P2;PMS_P1;PMS_P2;Temp;Humidity;BMP_temperature;BMP_pressure;BME280_temperature;BME280_humidity;BME280_pressure;Samples;Min_cycle;Max_cycle;Signal;HPM_P1;HPM_P2
2022/08/26 00:00:30;;;;;;;;;1.00;1.00;;;;;22.26;61.94;100875.09;5016896;28;46305;-75
2022/08/26 00:02:57;;;;;;;;;2.50;2.50;;;;;22.19;62.10;100875.50;5025392;28;45542;-74
2022/08/26 00:05:23;;;;;;;;;2.00;2.00;;;;;22.16;62.28;100874.84;5021835;28;45419;-75
2022/08/26 00:07:49;;;;;;;;;1.00;1.00;;;;;22.14;62.25;100861.47;5021282;28;45423;-75
2022/08/26 00:10:15;;;;;;;;;2.00;2.00;;;;;22.16;62.04;100864.06;5025357;28;45512;-75
2022/08/26 00:12:41;;;;;;;;;0.00;0.00;;;;;22.16;62.40;100880.22;5027000;28;45455;-75
2022/08/26 00:15:08;;;;;;;;;1.00;1.00;;;;;22.12;62.23;100882.25;5027898;28;45459;-74
2022/08/26 00:17:34;;;;;;;;;1.75;1.00;;;;;22.13;62.31;100873.19;5020476;28;45406;-75
2022/08/26 00:19:59;;;;;;;;;1.00;1.00;;;;;22.10;62.47;100878.78;5027784;28;45593;-75
2022/08/26 00:22:25;;;;;;;;;1.00;1.00;;;;;22.06;62.86;100877.25;5024564;28;45820;-75
2022/08/26 00:24:50;;;;;;;;;2.00;2.00;;;;;22.04;62.50;100879.16;5021123;28;45521;-75
2022/08/26 00:27:16;;;;;;;;;1.00;1.00;;;;;22.03;63.08;100881.94;5028427;28;45494;-75
2022/08/26 00:29:42;;;;;;;;;2.00;1.00;;;;;21.97;62.70;100878.69;5019113;28;46721;-76
2022/08/26 00:32:07;;;;;;;;;2.75;1.50;;;;;21.99;62.75;100883.97;5025937;28;45475;-75
2022/08/26 00:34:33;;;;;;;;;2.25;2.25;;;;;21.94;62.90;100878.00;5021540;28;45336;-75
2022/08/26 00:36:58;;;;;;;;;4.00;2.25;;;;;21.89;63.05;100875.59;5002534;28;45572;-75
2022/08/26 00:39:24;;;;;;;;;1.50;1.00;;;;;21.95;63.19;100888.66;5022544;28;45400;-75
2022/08/26 00:41:49;;;;;;;;;2.50;2.50;;;;;21.90;63.48;100880.03;5020820;28;45487;-74
2022/08/26 00:44:15;;;;;;;;;3.00;3.00;;;;;21.82;63.64;100875.13;5024260;28;45397;-74
2022/08/26 00:46:55;;;;;;;;;4.25;3.00;;;;;21.86;63.67;100881.19;5025506;28;45666;-75
2022/08/26 00:49:30;;;;;;;;;2.00;2.00;;;;;21.81;63.74;100886.84;5025461;28;45547;-75
2022/08/26 00:51:59;;;;;;;;;2.00;1.75;;;;;21.82;63.81;100895.81;5021033;28;45514;-75
2022/08/26 00:54:31;;;;;;;;;2.00;2.00;;;;;21.81;63.83;100897.63;5023375;28;45860;-75
2022/08/26 00:57:01;;;;;;;;;1.00;1.00;;;;;21.83;63.78;100898.41;5020012;28;45473;-76
2022/08/26 00:59:29;;;;;;;;;2.25;1.25;;;;;21.78;63.91;100889.72;5027410;28;46203;-75
2022/08/26 01:01:55;;;;;;;;;1.25;1.25;;;;;21.80;63.99;100898.59;5022531;28;45481;-74
2022/08/26 01:04:22;;;;;;;;;3.75;3.00;;;;;21.73;64.20;100889.16;5015372;28;45708;-75
2022/08/26 01:06:51;;;;;;;;;3.50;2.75;;;;;21.76;64.02;100897.03;5021520;28;45475;-75
2022/08/26 01:09:18;;;;;;;;;2.00;2.00;;;;;21.75;64.19;100892.63;5023221;28;46180;-74
2022/08/26 01:11:45;;;;;;;;;2.00;2.00;;;;;21.77;63.98;100893.41;5015205;28;45591;-75
2022/08/26 01:14:13;;;;;;;;;3.75;3.75;;;;;21.75;64.37;100889.94;5027953;28;45526;-75
2022/08/26 01:16:38;;;;;;;;;5.00;2.50;;;;;21.72;64.45;100890.13;5025890;28;45553;-76
2022/08/26 01:19:27;;;;;;;;;7.00;4.00;;;;;21.65;64.75;100881.56;5012537;28;46477;-74
2022/08/26 01:22:06;;;;;;;;;3.00;3.00;;;;;21.62;64.51;100886.25;5001547;28;46597;-75
2022/08/26 01:24:32;;;;;;;;;4.50;3.00;;;;;21.60;64.71;100889.03;5006765;28;45656;-75
2022/08/26 01:27:03;;;;;;;;;5.00;5.00;;;;;21.60;65.03;100886.34;5018580;28;45506;-75
2022/08/26 01:29:31;;;;;;;;;3.25;3.25;;;;;21.54;64.79;100877.81;5016152;28;46242;-77
2022/08/26 01:31:57;;;;;;;;;3.00;2.25;;;;;21.51;64.93;100883.38;5022253;28;45495;-73
2022/08/26 01:34:33;;;;;;;;;4.25;2.00;;;;;21.56;64.83;100884.84;5023004;28;45459;-75
2022/08/26 01:37:18;;;;;;;;;7.00;5.75;;;;;21.58;65.09;100882.91;5023779;28;45504;-76
2022/08/26 01:39:47;;;;;;;;;2.50;2.50;;;;;21.51;65.20;100886.91;5014474;28;46476;-75
2022/08/26 01:42:14;;;;;;;;;3.00;3.00;;;;;21.48;64.99;100881.69;5028305;28;45478;-75
2022/08/26 01:44:45;;;;;;;;;9.00;6.00;;;;;21.45;65.15;100888.16;5020352;28;45452;-75
2022/08/26 01:47:13;;;;;;;;;5.75;3.00;;;;;21.43;65.34;100883.81;5030070;28;45384;-75
2022/08/26 01:49:41;;;;;;;;;5.25;4.00;;;;;21.43;65.38;100884.66;5021212;28;46558;-75
2022/08/26 01:52:11;;;;;;;;;5.00;5.00;;;;;21.36;65.16;100872.56;5025425;28;45560;-74
2022/08/26 01:54:37;;;;;;;;;5.00;4.00;;;;;21.41;65.54;100891.13;5024974;28;45540;-75
2022/08/26 01:57:03;;;;;;;;;6.00;6.00;;;;;21.37;65.77;100901.16;5026806;28;45563;-75
2022/08/26 01:59:29;;;;;;;;;7.00;4.50;;;;;21.35;65.83;100897.72;5013812;28;45741;-75
2022/08/26 02:01:55;;;;;;;;;7.00;7.00;;;;;21.34;65.95;100904.03;5014354;28;45464;-75
2022/08/26 02:04:26;;;;;;;;;6.50;6.50;;;;;21.32;66.07;100903.28;5022556;28;45508;-75
2022/08/26 02:06:52;;;;;;;;;5.75;5.75;;;;;21.25;65.87;100889.31;5030853;28;45411;-75
2022/08/26 02:09:18;;;;;;;;;10.25;6.25;;;;;21.29;66.24;100904.31;5027658;28;45504;-76
2022/08/26 02:11:44;;;;;;;;;9.00;9.00;;;;;21.27;66.08;100899.97;5019998;28;45506;-75
2022/08/26 02:14:18;;;;;;;;;7.00;6.50;;;;;21.25;66.16;100897.38;5030998;28;45500;-75
2022/08/26 02:16:47;;;;;;;;;7.50;7.00;;;;;21.20;66.35;100893.28;5024127;28;45475;-76
2022/08/26 02:19:16;;;;;;;;;7.75;7.00;;;;;21.21;66.34;100908.41;5018548;28;45999;-75
2022/08/26 02:21:42;;;;;;;;;6.25;5.50;;;;;21.16;66.16;100899.78;5020581;28;45786;-73
2022/08/26 02:24:14;;;;;;;;;7.25;6.25;;;;;21.16;66.32;100915.91;5019613;28;46486;-75
2022/08/26 02:26:41;;;;;;;;;8.75;6.25;;;;;21.16;66.12;100902.47;5025560;28;45447;-75
2022/08/26 02:29:22;;;;;;;;;6.75;6.75;;;;;21.16;66.17;100903.31;5020144;28;45735;-76
2022/08/26 02:31:49;;;;;;;;;8.50;7.25;;;;;21.09;66.68;100905.50;5010148;28;45643;-75
2022/08/26 02:34:20;;;;;;;;;8.00;7.50;;;;;21.14;66.42;100909.75;5025075;28;45748;-76
2022/08/26 02:36:46;;;;;;;;;8.50;7.25;;;;;21.12;66.41;100905.31;5017476;28;45538;-74
2022/08/26 02:39:12;;;;;;;;;6.00;5.75;;;;;21.14;66.27;100909.75;5022327;28;46218;-76
2022/08/26 02:41:37;;;;;;;;;7.00;6.75;;;;;21.12;66.38;100907.16;5029785;28;45438;-74
2022/08/26 02:44:05;;;;;;;;;8.75;7.75;;;;;21.11;66.39;100905.41;5022674;28;45582;-75
2022/08/26 02:46:31;;;;;;;;;13.00;7.00;;;;;21.01;66.48;100898.84;5028217;28;45397;-75
2022/08/26 02:48:57;;;;;;;;;10.25;8.50;;;;;21.02;66.60;100901.44;5020225;28;45363;-74
2022/08/26 02:51:23;;;;;;;;;11.00;10.50;;;;;21.03;66.58;100911.25;5006463;28;45489;-75
2022/08/26 02:53:48;;;;;;;;;6.75;6.75;;;;;21.04;66.75;100910.28;5023435;28;45506;-75
2022/08/26 02:56:14;;;;;;;;;7.00;7.00;;;;;21.01;67.05;100909.59;5019496;28;45593;-75
2022/08/26 02:58:39;;;;;;;;;11.00;10.25;;;;;21.00;66.90;100911.44;5025063;28;45506;-75
2022/08/26 03:01:04;;;;;;;;;6.25;5.00;;;;;20.99;67.02;100906.16;5007825;28;45628;-76
2022/08/26 03:03:30;;;;;;;;;8.50;8.50;;;;;20.91;67.00;100901.22;5021188;28;45567;-76
2022/08/26 03:05:56;;;;;;;;;12.25;10.00;;;;;20.96;67.04;100911.69;5025858;28;45433;-76
2022/08/26 03:08:21;;;;;;;;;10.25;8.50;;;;;20.89;66.89;100900.44;5025615;28;45529;-75
2022/08/26 03:10:47;;;;;;;;;12.00;10.00;;;;;20.88;67.22;100909.47;5020623;28;45479;-75
2022/08/26 03:13:13;;;;;;;;;11.50;8.00;;;;;20.86;67.41;100905.97;5028552;28;44861;-75
2022/08/26 03:15:39;;;;;;;;;8.50;6.75;;;;;20.85;67.45;100906.94;5028758;28;45494;-75
2022/08/26 03:18:05;;;;;;;;;8.00;8.00;;;;;20.85;67.62;100910.50;5024766;28;45499;-76
2022/08/26 03:20:31;;;;;;;;;12.00;11.25;;;;;20.81;67.71;100902.72;5015576;28;45462;-75
2022/08/26 03:22:56;;;;;;;;;10.25;5.25;;;;;20.79;67.70;100900.09;5023043;28;45506;-75
2022/08/26 03:25:23;;;;;;;;;8.00;7.50;;;;;20.80;67.51;100911.72;5022796;28;45485;-75
2022/08/26 03:27:49;;;;;;;;;14.00;8.50;;;;;20.73;68.05;100903.16;5023219;28;45544;-75
2022/08/26 03:33:00;;;;;;;;;8.50;8.50;;;;;20.66;68.29;100904.44;5026513;28;45498;-75
2022/08/26 03:35:26;;;;;;;;;14.00;9.50;;;;;20.68;68.45;100913.28;5019767;28;45754;-73
2022/08/26 03:37:51;;;;;;;;;11.25;10.25;;;;;20.66;68.51;100904.44;5029675;28;45459;-75
2022/08/26 03:40:18;;;;;;;;;10.75;9.50;;;;;20.63;68.53;100905.44;5024965;28;45961;-75
2022/08/26 03:42:43;;;;;;;;;11.75;11.75;;;;;20.62;68.70;100911.78;5028862;28;45521;-74
2022/08/26 03:45:11;;;;;;;;;12.00;10.00;;;;;20.57;68.75;100897.75;5029646;28;45374;-76
2022/08/26 03:47:37;;;;;;;;;14.00;9.75;;;;;20.57;68.88;100916.53;5023752;28;45333;-74
2022/08/26 03:50:04;;;;;;;;;10.50;10.00;;;;;20.57;68.89;100898.63;5022878;28;45515;-75
2022/08/26 03:52:30;;;;;;;;;8.75;8.50;;;;;20.56;69.06;100896.88;5021177;28;45316;-75
2022/08/26 03:54:55;;;;;;;;;16.50;11.00;;;;;20.50;68.85;100894.56;5022509;28;45504;-74
2022/08/26 03:57:21;;;;;;;;;11.00;10.25;;;;;20.53;69.00;100905.13;5022715;28;45610;-76
2022/08/26 03:59:46;;;;;;;;;14.75;12.00;;;;;20.53;69.28;100904.25;5023122;28;45557;-75
2022/08/26 04:02:11;;;;;;;;;11.25;7.75;;;;;20.49;69.25;100900.88;5024732;28;45458;-76
2022/08/26 04:04:37;;;;;;;;;15.25;13.50;;;;;20.53;69.28;100909.63;5021388;28;45488;-75
2022/08/26 04:07:03;;;;;;;;;12.50;11.00;;;;;20.56;69.20;100914.81;5023741;28;46026;-75
2022/08/26 04:09:28;;;;;;;;;13.75;11.50;;;;;20.54;69.28;100905.97;5022000;28;45502;-75
2022/08/26 04:11:54;;;;;;;;;14.00;10.00;;;;;20.58;69.34;100902.16;5023500;28;45449;-74
2022/08/26 04:14:22;;;;;;;;;9.25;7.75;;;;;20.57;69.46;100906.69;5023885;28;45625;-75
2022/08/26 04:16:49;;;;;;;;;16.25;13.00;;;;;20.58;69.43;100902.16;5019747;28;45513;-77
2022/08/26 04:19:16;;;;;;;;;10.50;10.25;;;;;20.53;69.53;100904.25;5021518;28;45456;-75
2022/08/26 04:21:43;;;;;;;;;11.25;11.00;;;;;20.52;69.29;100908.75;5017606;28;45612;-75
2022/08/26 04:24:10;;;;;;;;;13.50;11.50;;;;;20.50;69.62;100912.50;5019595;28;45442;-76
2022/08/26 04:26:36;;;;;;;;;15.00;13.75;;;;;20.41;69.95;100909.34;5021462;28;46285;-75
2022/08/26 04:29:15;;;;;;;;;12.00;12.00;;;;;20.46;70.04;100908.22;5020159;28;45536;-75
2022/08/26 04:31:40;;;;;;;;;19.25;16.50;;;;;20.41;69.75;100901.28;5023574;28;45455;-76
2022/08/26 04:34:06;;;;;;;;;12.75;10.25;;;;;20.45;69.84;100903.81;5026440;28;45619;-75
2022/08/26 04:36:32;;;;;;;;;12.00;10.75;;;;;20.41;69.95;100906.66;5027763;28;45498;-75
2022/08/26 04:38:59;;;;;;;;;20.00;16.50;;;;;20.48;69.88;100912.56;5025287;28;45916;-76
2022/08/26 04:41:25;;;;;;;;;16.00;12.75;;;;;20.48;70.09;100917.06;5028735;28;45659;-76
2022/08/26 04:43:51;;;;;;;;;16.00;14.00;;;;;20.45;70.42;100923.44;5033805;28;45524;-76
2022/08/26 04:46:21;;;;;;;;;13.50;10.00;;;;;20.49;69.93;100918.81;5023955;28;45396;-76
2022/08/26 04:48:47;;;;;;;;;13.50;11.75;;;;;20.46;69.94;100916.28;5029717;28;45416;-75
2022/08/26 04:51:13;;;;;;;;;10.00;9.50;;;;;20.51;70.24;100920.47;5032477;28;45424;-76
2022/08/26 04:53:38;;;;;;;;;14.25;13.75;;;;;20.45;70.21;100919.91;5025318;28;45463;-76
2022/08/26 04:56:04;;;;;;;;;20.75;15.75;;;;;20.50;70.07;100923.22;5020761;28;45530;-76
2022/08/26 04:58:30;;;;;;;;;17.25;12.75;;;;;20.50;70.11;100929.44;5018240;28;45941;-75
2022/08/26 05:00:56;;;;;;;;;10.00;7.75;;;;;20.48;69.96;100926.00;5025259;28;45437;-75
2022/08/26 05:03:22;;;;;;;;;17.00;15.50;;;;;20.50;69.84;100928.59;5011352;28;45364;-75
2022/08/26 05:05:49;;;;;;;;;15.50;14.50;;;;;20.51;70.07;100938.34;5027490;28;45547;-75
2022/08/26 05:08:16;;;;;;;;;16.50;12.50;;;;;20.49;69.85;100930.38;5006710;28;45519;-76
2022/08/26 05:10:46;;;;;;;;;23.50;16.25;;;;;20.45;70.17;100927.97;5028334;28;45491;-76
2022/08/26 05:13:15;;;;;;;;;12.75;12.75;;;;;20.41;70.13;100928.13;5028799;28;45445;-76
2022/08/26 05:15:41;;;;;;;;;12.00;12.00;;;;;20.39;70.27;100927.38;5025094;28;46368;-76
2022/08/26 05:18:06;;;;;;;;;19.75;18.25;;;;;20.46;70.09;100940.44;5020437;28;45942;-77
2022/08/26 05:20:37;;;;;;;;;15.25;13.50;;;;;20.45;69.91;100939.56;5023897;28;45457;-76
2022/08/26 05:23:03;;;;;;;;;17.00;16.50;;;;;20.45;70.11;100946.75;5028161;28;45486;-76
2022/08/26 05:25:28;;;;;;;;;16.75;13.50;;;;;20.40;70.18;100950.56;5026681;28;45408;-76
2022/08/26 05:27:54;;;;;;;;;13.00;11.00;;;;;20.41;70.36;100952.28;5029762;28;45520;-74
2022/08/26 05:30:19;;;;;;;;;21.75;17.00;;;;;20.37;70.11;100952.56;5028206;28;45408;-75
2022/08/26 05:32:49;;;;;;;;;16.75;16.00;;;;;20.40;70.44;100958.59;5024439;28;45567;-75
2022/08/26 05:35:16;;;;;;;;;19.25;16.75;;;;;20.41;70.25;100956.81;5021412;28;46215;-75
2022/08/26 05:37:41;;;;;;;;;18.75;15.50;;;;;20.35;70.51;100963.38;5030777;28;45381;-76
2022/08/26 05:40:07;;;;;;;;;12.00;11.25;;;;;20.36;70.54;100957.06;5028241;28;45436;-75
2022/08/26 05:42:33;;;;;;;;;14.00;13.50;;;;;20.34;70.48;100958.09;5029569;28;45621;-75
2022/08/26 05:44:58;;;;;;;;;12.25;12.25;;;;;20.36;70.53;100965.13;5040776;28;46194;-76
2022/08/26 05:47:25;;;;;;;;;19.00;13.75;;;;;20.35;70.58;100971.41;5021701;28;45697;-76
2022/08/26 05:49:50;;;;;;;;;17.00;14.75;;;;;20.32;70.82;100957.31;5032613;28;45539;-75
2022/08/26 05:52:16;;;;;;;;;19.00;17.00;;;;;20.33;70.91;100959.91;5018477;28;45637;-75
2022/08/26 05:54:41;;;;;;;;;22.00;15.00;;;;;20.39;70.58;100964.06;5017915;28;46050;-75
2022/08/26 05:57:06;;;;;;;;;18.00;14.50;;;;;20.39;70.61;100967.63;5028786;28;45538;-76
2022/08/26 05:59:32;;;;;;;;;21.00;14.75;;;;;20.44;70.47;100971.84;5035931;28;45731;-77
2022/08/26 06:01:58;;;;;;;;;19.50;15.75;;;;;20.44;70.48;100971.84;5027402;28;45530;-75
2022/08/26 06:04:24;;;;;;;;;7.50;7.00;;;;;20.41;70.59;100962.19;5026032;28;45480;-75
2022/08/26 06:06:50;;;;;;;;;16.25;11.75;;;;;20.36;70.10;100962.44;5023423;28;46408;-75
2022/08/26 06:09:15;;;;;;;;;15.00;14.75;;;;;20.37;70.33;100960.59;5024540;28;45498;-75
2022/08/26 06:11:41;;;;;;;;;17.00;12.50;;;;;20.29;70.68;100955.66;5027551;28;45468;-74
2022/08/26 06:14:07;;;;;;;;;14.00;12.50;;;;;20.33;70.69;100975.13;5027519;28;48176;-76
2022/08/26 06:16:37;;;;;;;;;18.00;13.00;;;;;20.34;70.49;100969.69;5024465;28;45442;-75
2022/08/26 06:19:03;;;;;;;;;18.50;12.75;;;;;20.31;70.40;100969.84;5019643;28;45568;-74
2022/08/26 06:21:32;;;;;;;;;19.00;15.50;;;;;20.35;70.54;100989.34;5029831;28;45489;-74
2022/08/26 06:26:54;;;;;;;;;14.75;11.75;;;;;20.29;70.75;100978.97;5026751;28;45555;-75
2022/08/26 06:29:24;;;;;;;;;13.50;11.75;;;;;20.29;70.50;100979.81;5023058;28;45600;-76
2022/08/26 06:31:51;;;;;;;;;19.25;14.50;;;;;20.23;70.85;100975.63;5019334;28;45555;-76
2022/08/26 06:34:16;;;;;;;;;20.00;16.25;;;;;20.24;70.58;100972.00;5018207;28;46218;-74
2022/08/26 06:36:43;;;;;;;;;15.75;15.75;;;;;20.24;70.45;100968.47;5022161;28;45435;-76
2022/08/26 06:39:14;;;;;;;;;13.50;12.75;;;;;20.23;70.48;100969.41;5031134;28;45497;-76
2022/08/26 06:41:42;;;;;;;;;19.25;16.25;;;;;20.22;70.42;100965.88;5012847;28;45523;-76
2022/08/26 06:44:07;;;;;;;;;17.50;13.00;;;;;20.29;69.96;100969.06;5035910;28;45443;-76
2022/08/26 06:46:33;;;;;;;;;14.75;12.50;;;;;20.34;69.95;100969.69;5035233;28;45413;-76
2022/08/26 06:48:59;;;;;;;;;12.75;9.50;;;;;20.31;69.66;100979.72;5037938;28;45404;-75
2022/08/26 06:51:33;;;;;;;;;14.75;11.25;;;;;20.30;69.58;100973.50;5037056;28;45399;-74
2022/08/26 06:54:00;;;;;;;;;11.75;10.00;;;;;20.30;69.53;100973.50;5015110;28;45380;-76
2022/08/26 06:56:31;;;;;;;;;12.25;11.75;;;;;20.36;69.03;100970.47;5028867;28;45527;-75
2022/08/26 06:58:56;;;;;;;;;13.00;10.00;;;;;20.44;68.67;100979.91;5018541;28;45552;-78
2022/08/26 07:01:28;;;;;;;;;15.00;11.25;;;;;20.51;68.73;100990.25;5020639;28;45491;-75
2022/08/26 07:03:56;;;;;;;;;18.75;11.50;;;;;20.64;68.31;100986.88;5025911;28;46418;-76
2022/08/26 07:06:22;;;;;;;;;16.00;15.50;;;;;20.90;67.79;100977.38;5024444;28;45428;-77
2022/08/26 07:08:51;;;;;;;;;16.25;14.50;;;;;21.83;65.39;100984.47;5026294;28;45557;-75
2022/08/26 07:11:18;;;;;;;;;16.00;11.25;;;;;22.40;62.44;100966.66;5016502;28;45527;-74
2022/08/26 07:13:44;;;;;;;;;13.00;13.00;;;;;22.74;61.22;100969.00;5028742;28;46174;-74
2022/08/26 07:16:13;;;;;;;;;11.50;10.50;;;;;23.38;59.33;100966.59;5029503;28;45531;-74
2022/08/26 07:18:41;;;;;;;;;12.25;10.75;;;;;23.42;58.79;100960.03;5025609;28;45435;-74
2022/08/26 07:21:11;;;;;;;;;15.25;12.50;;;;;23.37;58.33;100956.78;5029108;28;45673;-74
2022/08/26 07:23:37;;;;;;;;;13.75;10.75;;;;;23.39;58.12;100962.94;5020555;28;45541;-74
2022/08/26 07:26:08;;;;;;;;;12.50;10.50;;;;;23.42;58.17;100966.25;5025336;28;45490;-73
2022/08/26 07:28:33;;;;;;;;;11.25;9.00;;;;;23.36;57.95;100964.00;5000784;28;45518;-82
2022/08/26 07:31:04;;;;;;;;;17.75;15.50;;;;;23.34;57.56;100975.88;5022544;28;45537;-74
2022/08/26 07:33:29;;;;;;;;;11.00;6.00;;;;;23.34;58.10;100975.88;5024390;28;45528;-74
2022/08/26 07:35:55;;;;;;;;;13.00;13.00;;;;;23.39;57.64;100971.03;5023012;28;45471;-73
2022/08/26 07:38:20;;;;;;;;;13.00;9.00;;;;;23.37;57.83;100972.97;5021922;28;45653;-75
2022/08/26 07:40:46;;;;;;;;;12.50;11.75;;;;;23.52;57.37;100976.44;5028157;28;45524;-74
2022/08/26 07:43:12;;;;;;;;;11.25;11.25;;;;;23.71;57.04;100976.91;5019510;28;45577;-73
2022/08/26 07:45:38;;;;;;;;;12.25;10.00;;;;;23.95;56.10;100966.25;5022568;28;45447;-75
2022/08/26 07:48:04;;;;;;;;;9.75;8.50;;;;;24.24;55.07;100976.84;5014012;28;45476;-74
2022/08/26 07:50:29;;;;;;;;;15.00;10.00;;;;;24.46;54.37;100984.28;5013033;28;45551;-73
2022/08/26 07:52:55;;;;;;;;;12.25;9.75;;;;;24.63;53.53;100980.38;5014247;28;45434;-74
2022/08/26 07:55:21;;;;;;;;;9.00;8.00;;;;;25.11;52.51;100970.56;5011954;28;45542;-76
2022/08/26 07:57:47;;;;;;;;;13.00;10.50;;;;;25.92;50.37;100966.22;4996231;28;45391;-75
2022/08/26 08:00:15;;;;;;;;;11.25;9.25;;;;;26.23;49.70;100966.50;5013352;28;45395;-75
2022/08/26 08:02:41;;;;;;;;;10.50;8.75;;;;;26.35;48.72;100975.50;5013642;28;46196;-74
2022/08/26 08:05:07;;;;;;;;;9.00;7.25;;;;;26.53;48.65;100965.88;5030048;28;45467;-75
2022/08/26 08:07:33;;;;;;;;;7.75;7.75;;;;;26.56;48.46;100975.59;5016543;28;45519;-75
2022/08/26 08:09:58;;;;;;;;;9.75;8.50;;;;;27.01;47.39;100967.41;5038488;28;45382;-76
2022/08/26 08:12:23;;;;;;;;;8.00;6.00;;;;;27.13;47.05;100963.66;5038639;28;46133;-74
2022/08/26 08:14:50;;;;;;;;;8.00;7.00;;;;;27.04;46.41;100967.16;5034517;28;45432;-76
2022/08/26 08:17:15;;;;;;;;;8.00;8.00;;;;;27.29;46.72;100965.09;5037465;28;45359;-75
2022/08/26 08:19:41;;;;;;;;;12.50;10.75;;;;;27.44;46.28;100973.81;5040331;28;45535;-74
2022/08/26 08:22:07;;;;;;;;;7.50;7.50;;;;;27.46;45.83;100963.69;5033665;28;45379;-75
2022/08/26 08:24:34;;;;;;;;;5.75;5.75;;;;;27.76;45.97;100971.03;5033674;28;45475;-75
2022/08/26 08:27:00;;;;;;;;;6.50;6.50;;;;;28.15;44.66;100967.69;5033266;28;45387;-73
2022/08/26 08:29:29;;;;;;;;;8.50;7.50;;;;;28.13;44.58;100965.09;5033527;28;45487;-74
2022/08/26 08:31:58;;;;;;;;;10.00;8.75;;;;;28.24;44.39;100971.44;5033324;28;46057;-74
2022/08/26 08:34:25;;;;;;;;;11.00;11.00;;;;;28.08;44.25;100969.25;5033633;28;45586;-74
2022/08/26 08:36:51;;;;;;;;;11.00;11.00;;;;;27.90;45.09;100966.25;5033506;28;45554;-73
2022/08/26 08:39:16;;;;;;;;;9.75;9.00;;;;;27.79;45.04;100965.34;5015699;28;45543;-74
2022/08/26 08:41:57;;;;;;;;;14.75;10.25;;;;;27.43;45.39;100969.38;5035028;28;45398;-73
2022/08/26 08:44:24;;;;;;;;;15.50;12.00;;;;;27.16;45.90;100961.69;5016470;28;45344;-73
2022/08/26 08:46:54;;;;;;;;;12.00;11.25;;;;;27.06;46.58;100967.88;5033429;28;45487;-74
2022/08/26 08:49:22;;;;;;;;;9.00;8.25;;;;;26.98;46.68;100964.97;5033679;28;45375;-72
2022/08/26 08:51:54;;;;;;;;;12.00;9.50;;;;;26.64;46.95;100964.13;5033004;28;45410;-74
2022/08/26 08:54:19;;;;;;;;;9.75;8.25;;;;;26.79;47.06;100968.31;5032695;28;45442;-75
2022/08/26 08:56:52;;;;;;;;;9.25;7.00;;;;;26.88;46.58;100964.00;5014528;28;45407;-75
2022/08/26 08:59:26;;;;;;;;;10.00;8.00;;;;;27.34;46.37;100968.28;5033338;28;45601;-75
2022/08/26 09:02:19;;;;;;;;;12.00;8.00;;;;;27.34;45.43;100968.28;5033572;28;46168;-73
2022/08/26 09:05:16;;;;;;;;;7.50;7.00;;;;;27.95;45.24;100967.59;5033304;28;45474;-72
2022/08/26 09:07:49;;;;;;;;;5.25;5.25;;;;;29.06;42.07;100967.69;5032930;28;45431;-74
2022/08/26 09:10:29;;;;;;;;;9.00;7.00;;;;;29.50;40.30;100960.00;5034019;28;45452;-74
2022/08/26 09:12:55;;;;;;;;;9.25;7.75;;;;;29.42;40.05;100955.28;5036102;28;45556;-74
2022/08/26 09:15:27;;;;;;;;;4.00;4.00;;;;;29.58;40.09;100949.25;5036104;28;45605;-74
2022/08/26 09:18:02;;;;;;;;;5.50;5.00;;;;;29.54;40.35;100955.97;5026770;28;45387;-73
2022/08/26 09:20:46;;;;;;;;;5.00;5.00;;;;;29.36;40.21;100963.16;5036640;28;45519;-75
2022/08/26 09:23:13;;;;;;;;;5.00;5.00;;;;;29.01;40.03;100964.56;5035890;28;45503;-74
2022/08/26 09:25:50;;;;;;;;;4.00;4.00;;;;;29.00;40.80;100957.38;5036038;28;45702;-73
2022/08/26 09:28:19;;;;;;;;;6.00;5.00;;;;;28.85;40.53;100949.66;5036617;28;45293;-74
2022/08/26 09:30:58;;;;;;;;;3.75;3.75;;;;;28.59;41.24;100964.72;5036346;28;45557;-74
2022/08/26 09:33:28;;;;;;;;;4.25;4.25;;;;;28.85;41.34;100959.69;5036314;28;45429;-74
2022/08/26 09:36:21;;;;;;;;;8.75;5.00;;;;;28.35;41.65;100955.91;5036072;28;46126;-74
2022/08/26 09:38:49;;;;;;;;;5.00;5.00;;;;;27.88;42.23;100960.97;5036140;28;45400;-74
2022/08/26 09:41:30;;;;;;;;;4.00;4.00;;;;;27.64;42.71;100955.81;5036795;28;45571;-73
2022/08/26 09:44:17;;;;;;;;;4.75;4.75;;;;;28.13;42.61;100954.25;5038538;28;46345;-72
2022/08/26 09:46:56;;;;;;;;;4.75;4.00;;;;;28.46;41.21;100949.53;5036870;28;45432;-73
2022/08/26 09:49:34;;;;;;;;;6.25;4.00;;;;;29.25;40.67;100945.13;5018044;28;45454;-74
2022/08/26 09:52:08;;;;;;;;;3.00;3.00;;;;;30.03;39.35;100945.00;5035336;28;45415;-74
2022/08/26 09:54:35;;;;;;;;;7.50;6.00;;;;;30.10;38.55;100945.28;5035977;28;46210;-74
2022/08/26 09:57:25;;;;;;;;;7.50;6.00;;;;;29.87;39.15;100952.97;5035309;28;45337;-74
2022/08/26 09:59:50;;;;;;;;;5.75;5.00;;;;;29.78;40.11;100954.66;5018132;28;45560;-74
2022/08/26 10:02:21;;;;;;;;;8.50;6.25;;;;;29.72;39.91;100949.81;5035547;28;45571;-74
2022/08/26 10:04:55;;;;;;;;;4.75;4.75;;;;;29.49;40.30;100946.56;5036037;28;45366;-73
2022/08/26 10:07:42;;;;;;;;;7.25;7.00;;;;;29.29;41.01;100952.00;5017047;28;45396;-74
2022/08/26 10:10:19;;;;;;;;;8.75;5.00;;;;;29.10;41.03;100954.69;5017710;28;45417;-73
2022/08/26 10:12:57;;;;;;;;;9.50;6.00;;;;;28.78;40.50;100947.63;5038582;28;45353;-73
2022/08/26 10:15:25;;;;;;;;;7.25;5.00;;;;;28.38;41.89;100959.34;5037712;28;46108;-73
2022/08/26 10:18:05;;;;;;;;;5.00;5.00;;;;;28.07;42.42;100960.22;5025335;28;45481;-74
2022/08/26 10:20:36;;;;;;;;;8.00;7.00;;;;;27.74;42.95;100956.75;5034990;28;45500;-75
2022/08/26 10:23:11;;;;;;;;;8.00;8.00;;;;;28.39;42.24;100945.63;5035603;28;45408;-73
2022/08/26 10:25:52;;;;;;;;;4.00;4.00;;;;;29.02;40.10;100945.38;5034026;28;46164;-74
2022/08/26 10:28:51;;;;;;;;;10.00;6.00;;;;;29.70;38.60;100938.19;5034997;28;45416;-75
2022/08/26 10:31:25;;;;;;;;;5.50;5.50;;;;;29.94;37.90;100935.88;5035020;28;45293;-74
2022/08/26 10:33:52;;;;;;;;;8.50;7.50;;;;;30.07;38.29;100934.69;5035618;28;45435;-73
2022/08/26 10:39:11;;;;;;;;;4.50;3.75;;;;;29.98;37.71;100941.03;5035285;28;45439;-75
2022/08/26 10:41:42;;;;;;;;;4.00;3.75;;;;;29.55;37.67;100935.94;5037366;28;45424;-76
2022/08/26 10:44:13;;;;;;;;;4.00;4.00;;;;;29.30;37.76;100942.81;5020369;28;45556;-74
2022/08/26 10:46:50;;;;;;;;;4.75;3.50;;;;;29.11;38.73;100935.50;5035297;28;45933;-74
2022/08/26 10:49:16;;;;;;;;;8.00;6.75;;;;;28.99;38.34;100944.81;5034427;28;46035;-75
2022/08/26 10:52:16;;;;;;;;;6.25;3.50;;;;;29.57;38.81;100930.34;5034236;28;45587;-74
2022/08/26 10:54:53;;;;;;;;;5.00;3.00;;;;;30.49;38.29;100923.31;5032701;28;45544;-73
2022/08/26 10:57:28;;;;;;;;;4.00;3.50;;;;;31.18;35.93;100929.16;5034379;28;46310;-74
2022/08/26 11:01:40;;;;;;;;;3.25;3.25;;;;;31.60;32.87;100923.03;5034410;28;45435;-74
2022/08/26 11:02:59;;;;;;;;;3.00;3.00;;;;;31.74;32.76;100921.59;5034379;28;45450;-74
2022/08/26 11:05:24;;;;;;;;;2.75;2.75;;;;;31.91;32.61;100921.69;5034050;28;45666;-74
2022/08/26 11:08:18;;;;;;;;;5.00;3.00;;;;;31.74;32.96;100918.03;5034649;28;45765;-74
2022/08/26 11:10:58;;;;;;;;;2.75;2.75;;;;;31.41;33.15;100929.50;5034390;28;45484;-75
2022/08/26 11:13:55;;;;;;;;;5.25;3.25;;;;;31.08;34.20;100928.38;5039408;28;45446;-75
2022/08/26 11:16:38;;;;;;;;;4.25;3.25;;;;;30.88;34.48;100922.19;5037029;28;45431;-75
2022/08/26 11:19:05;;;;;;;;;5.50;5.50;;;;;31.35;34.98;100919.22;4999568;28;46155;-76
2022/08/26 11:21:51;;;;;;;;;4.25;4.00;;;;;32.19;34.44;100916.91;4975332;28;45485;-75
2022/08/26 11:24:41;;;;;;;;;4.00;4.00;;;;;32.85;32.71;100907.06;4975012;28;45336;-74
2022/08/26 11:27:28;;;;;;;;;3.25;3.25;;;;;32.58;31.96;100913.63;4974782;28;45395;-74
2022/08/26 11:29:58;;;;;;;;;1.50;1.50;;;;;32.81;31.20;100915.78;4974712;28;45443;-75
2022/08/26 11:32:44;;;;;;;;;2.50;2.50;;;;;32.35;31.31;100916.97;4973316;28;45590;-75
2022/08/26 11:35:16;;;;;;;;;4.00;4.00;;;;;31.96;32.17;100916.59;4975483;28;45348;-75
2022/08/26 11:37:47;;;;;;;;;3.50;3.50;;;;;31.50;32.26;100911.34;4974630;28;45424;-74